Terminal Aerodrome Forecast
Issued by NWS

Home | Current Version | Previous Version | Graphics & Text | Print | Product List | Glossary On
Versions: 1 2 3 4 5 6 7 8 9 10 11 12 13
177
FTUS43 KICT 191436 AAA
TAFRSL
TAF AMD
KRSL 191436Z 1915/2012 16012KT 1SM BR OVC003
      TEMPO 1915/1916 1/4SM FG VV002
     FM191800 18014G20KT P6SM BKN016
     FM191900 18016G24KT P6SM BKN060
     FM200000 16017KT P6SM VCSH BKN120=

USA.gov is the U.S. government's official web portal to all federal, state and local government web resources and services.